createdAt,value
2023-05-09T00:00:15.388Z,37.10
2023-05-09T00:01:15.411Z,37.14
2023-05-09T00:02:15.449Z,37.10
2023-05-09T00:03:15.473Z,37.23
2023-05-09T00:04:15.476Z,36.78
2023-05-09T00:05:15.824Z,37.10
2023-05-09T00:06:15.630Z,36.95
2023-05-09T00:07:15.657Z,36.88
2023-05-09T00:08:15.566Z,36.87
2023-05-09T00:09:15.564Z,37.06
2023-05-09T00:10:15.632Z,36.77
2023-05-09T00:11:15.621Z,37.06
2023-05-09T00:12:15.632Z,36.94
2023-05-09T00:13:15.674Z,36.94
2023-05-09T00:14:15.663Z,36.93
2023-05-09T00:15:15.816Z,36.80
2023-05-09T00:16:15.795Z,36.97
2023-05-09T00:17:15.792Z,36.92
2023-05-09T00:18:15.762Z,36.71
2023-05-09T00:19:15.775Z,36.91
2023-05-09T00:20:15.802Z,36.99
2023-05-09T00:21:15.803Z,36.83
2023-05-09T00:22:15.808Z,36.87
2023-05-09T00:23:15.907Z,36.89
2023-05-09T00:24:15.829Z,36.87
2023-05-09T00:25:16.099Z,36.81
2023-05-09T00:26:15.816Z,36.84
2023-05-09T00:27:15.853Z,36.76
2023-05-09T00:28:15.866Z,36.81
2023-05-09T00:29:15.872Z,36.85
2023-05-09T00:30:15.940Z,36.83
2023-05-09T00:31:15.901Z,36.83
2023-05-09T00:32:15.962Z,36.81
2023-05-09T00:33:15.942Z,36.81
2023-05-09T00:34:15.996Z,36.79
2023-05-09T00:35:16.229Z,36.73
2023-05-09T00:36:15.998Z,36.83
2023-05-09T00:37:16.037Z,36.75
2023-05-09T00:38:16.029Z,36.81
2023-05-09T00:39:16.133Z,36.79
2023-05-09T00:40:16.109Z,36.77
2023-05-09T00:41:16.109Z,36.79
2023-05-09T00:42:16.094Z,36.53
2023-05-09T00:43:16.104Z,36.75
2023-05-09T00:44:16.117Z,36.80
2023-05-09T00:45:16.220Z,36.76
2023-05-09T00:46:16.220Z,36.75
2023-05-09T00:47:16.221Z,36.78
2023-05-09T00:48:16.220Z,36.75
2023-05-09T00:49:16.263Z,36.77
2023-05-09T00:50:16.257Z,36.70
2023-05-09T00:51:16.268Z,36.76
2023-05-09T00:52:16.307Z,36.73
2023-05-09T00:53:16.350Z,36.70
2023-05-09T00:54:16.349Z,36.71
2023-05-09T00:55:16.667Z,36.54
2023-05-09T00:56:16.391Z,36.55
2023-05-09T00:57:16.417Z,36.70
2023-05-09T00:58:16.453Z,36.72
2023-05-09T00:59:17.587Z,36.73
2023-05-09T01:00:16.474Z,36.76
2023-05-09T01:01:16.548Z,36.74
2023-05-09T01:02:16.545Z,36.73
2023-05-09T01:03:16.612Z,36.66
2023-05-09T01:04:16.584Z,36.72
2023-05-09T01:05:16.789Z,36.75
2023-05-09T01:06:16.657Z,36.73
2023-05-09T01:07:16.649Z,36.89
2023-05-09T01:08:16.641Z,36.70
2023-05-09T01:09:16.662Z,36.72
2023-05-09T01:10:16.714Z,36.69
2023-05-09T01:11:16.809Z,36.69
2023-05-09T01:12:16.738Z,36.63
2023-05-09T01:13:16.783Z,36.62
2023-05-09T01:14:16.789Z,36.67
2023-05-09T01:15:16.915Z,36.71
2023-05-09T01:16:16.877Z,36.68
2023-05-09T01:17:16.858Z,36.66
2023-05-09T01:18:16.885Z,36.68
2023-05-09T01:19:16.911Z,36.68
2023-05-09T01:20:16.947Z,36.67
2023-05-09T01:21:16.921Z,36.65
2023-05-09T01:22:16.948Z,36.65
2023-05-09T01:23:16.988Z,36.64
2023-05-09T01:24:16.986Z,36.56
2023-05-09T01:25:17.084Z,36.62
2023-05-09T01:26:17.014Z,36.65
2023-05-09T01:27:17.103Z,36.63
2023-05-09T01:28:17.033Z,36.65
2023-05-09T01:29:17.078Z,36.56
2023-05-09T01:30:17.111Z,36.57
2023-05-09T01:31:17.162Z,36.53
2023-05-09T01:32:17.114Z,36.57
2023-05-09T01:33:17.139Z,36.63
2023-05-09T01:34:17.150Z,36.55
2023-05-09T01:35:17.240Z,36.57
2023-05-09T01:36:17.237Z,36.56
2023-05-09T01:37:17.216Z,36.57
2023-05-09T01:38:17.242Z,36.61
2023-05-09T01:39:17.262Z,36.60
2023-05-09T01:40:17.297Z,36.41
2023-05-09T01:41:17.313Z,36.48
2023-05-09T01:42:17.331Z,36.55
2023-05-09T01:43:17.438Z,36.59
2023-05-09T01:44:17.392Z,36.64
2023-05-09T01:45:17.547Z,36.59
2023-05-09T01:46:17.468Z,36.59
2023-05-09T01:47:17.479Z,36.55
2023-05-09T01:48:17.443Z,36.49
2023-05-09T01:49:17.468Z,36.60
2023-05-09T01:50:17.517Z,36.60
2023-05-09T01:51:17.551Z,36.58
2023-05-09T01:52:17.564Z,36.57
2023-05-09T01:53:17.578Z,36.53
2023-05-09T01:54:17.629Z,36.53
2023-05-09T01:55:17.611Z,36.56
2023-05-09T01:56:17.673Z,36.57
2023-05-09T01:57:17.671Z,36.52
2023-05-09T01:58:17.701Z,36.52
2023-05-09T01:59:17.825Z,36.57
2023-05-09T02:00:17.741Z,36.49
2023-05-09T02:01:17.810Z,36.39
2023-05-09T02:02:17.804Z,36.54
2023-05-09T02:03:17.879Z,36.52
2023-05-09T02:04:17.826Z,36.44
2023-05-09T02:05:17.958Z,36.50
2023-05-09T02:06:17.825Z,36.53
2023-05-09T02:07:17.869Z,36.60
2023-05-09T02:08:17.896Z,36.64
2023-05-09T02:09:17.933Z,36.52
2023-05-09T02:10:17.953Z,36.33
2023-05-09T02:11:17.969Z,36.45
2023-05-09T02:12:17.989Z,36.47
2023-05-09T02:13:18.075Z,36.47
2023-05-09T02:14:17.998Z,36.36
2023-05-09T02:15:18.100Z,36.30
2023-05-09T02:16:19.988Z,36.41
2023-05-09T02:17:18.182Z,36.45
2023-05-09T02:18:18.179Z,36.45
2023-05-09T02:19:18.191Z,36.53
2023-05-09T02:20:18.235Z,36.31
2023-05-09T02:21:18.258Z,36.48
2023-05-09T02:22:18.342Z,36.41
2023-05-09T02:23:18.260Z,36.44
2023-05-09T02:24:18.291Z,36.40
2023-05-09T02:25:18.301Z,36.47
2023-05-09T02:26:18.341Z,36.48
2023-05-09T02:27:18.358Z,36.45
2023-05-09T02:28:18.360Z,36.44
2023-05-09T02:29:18.417Z,36.26
2023-05-09T02:30:18.437Z,36.38
2023-05-09T02:31:18.538Z,36.39
2023-05-09T02:32:18.491Z,36.42
2023-05-09T02:33:18.503Z,36.43
2023-05-09T02:34:18.500Z,36.16
2023-05-09T02:35:18.549Z,36.35
2023-05-09T02:36:18.552Z,36.42
2023-05-09T02:37:18.575Z,36.43
2023-05-09T02:38:18.597Z,36.43
2023-05-09T02:39:18.629Z,36.39
2023-05-09T02:40:18.649Z,36.44
2023-05-09T02:41:18.661Z,36.40
2023-05-09T02:42:18.686Z,36.39
2023-05-09T02:43:18.705Z,36.40
2023-05-09T02:44:18.722Z,36.41
2023-05-09T02:45:18.760Z,36.50
2023-05-09T02:46:18.783Z,36.33
2023-05-09T02:47:18.857Z,36.38
2023-05-09T02:48:18.816Z,36.39
2023-05-09T02:49:31.356Z,36.39
2023-05-09T02:50:19.838Z,36.33
2023-05-09T02:51:18.804Z,36.12
2023-05-09T02:52:18.801Z,36.29
2023-05-09T02:53:18.810Z,36.32
2023-05-09T02:54:18.810Z,36.32
2023-05-09T02:55:18.776Z,36.27
2023-05-09T02:56:18.818Z,36.34
2023-05-09T02:57:18.772Z,36.37
2023-05-09T02:58:18.757Z,36.34
2023-05-09T02:59:19.446Z,36.32
2023-05-09T03:00:18.723Z,36.31
2023-05-09T03:01:18.760Z,36.34
2023-05-09T03:02:18.748Z,36.33
2023-05-09T03:03:18.951Z,36.32
2023-05-09T03:04:18.719Z,36.33
2023-05-09T03:05:18.709Z,36.28
2023-05-09T03:06:18.689Z,36.27
2023-05-09T03:07:18.706Z,36.31
2023-05-09T03:08:18.673Z,36.33
2023-05-09T03:09:18.684Z,36.31
2023-05-09T03:10:18.690Z,36.30
2023-05-09T03:11:18.711Z,36.31
2023-05-09T03:12:18.674Z,36.32
2023-05-09T03:13:18.696Z,36.30
2023-05-09T03:14:18.661Z,36.31
2023-05-09T03:15:18.723Z,36.42
2023-05-09T03:16:18.789Z,36.30
2023-05-09T03:17:18.757Z,36.32
2023-05-09T03:18:18.782Z,36.35
2023-05-09T03:19:18.878Z,36.33
2023-05-09T03:20:18.862Z,36.31
2023-05-09T03:21:18.847Z,36.24
2023-05-09T03:22:18.853Z,36.28
2023-05-09T03:23:18.882Z,36.31
2023-05-09T03:24:18.889Z,36.28
2023-05-09T03:25:18.927Z,36.30
2023-05-09T03:26:18.940Z,36.30
2023-05-09T03:27:18.978Z,36.30
2023-05-09T03:28:18.964Z,36.31
2023-05-09T03:29:18.997Z,36.29
2023-05-09T03:30:19.002Z,36.29
2023-05-09T03:31:19.056Z,36.28
2023-05-09T03:32:19.095Z,36.27
2023-05-09T03:33:19.098Z,36.23
2023-05-09T03:34:19.112Z,36.26
2023-05-09T03:35:19.184Z,36.27
2023-05-09T03:36:19.173Z,36.19
2023-05-09T03:37:19.194Z,36.24
2023-05-09T03:38:19.208Z,36.29
2023-05-09T03:39:19.230Z,36.23
2023-05-09T03:40:19.295Z,36.26
2023-05-09T03:41:19.274Z,36.25
2023-05-09T03:42:19.257Z,36.27
2023-05-09T03:43:19.308Z,36.24
2023-05-09T03:44:19.336Z,36.24
2023-05-09T03:45:19.345Z,36.25
2023-05-09T03:46:19.452Z,36.27
2023-05-09T03:47:19.422Z,36.24
2023-05-09T03:48:19.419Z,36.20
2023-05-09T03:49:19.451Z,36.21
2023-05-09T03:50:19.479Z,36.25
2023-05-09T03:51:19.584Z,36.27
2023-05-09T03:52:19.529Z,36.28
2023-05-09T03:53:19.544Z,36.23
2023-05-09T03:54:19.577Z,36.23
2023-05-09T03:55:19.613Z,36.15
2023-05-09T03:56:19.603Z,36.20
2023-05-09T03:57:19.650Z,36.24
2023-05-09T03:58:19.688Z,36.20
2023-05-09T03:59:19.713Z,36.20
2023-05-09T04:00:19.727Z,36.19
2023-05-09T04:01:19.714Z,36.21
2023-05-09T04:02:19.761Z,36.22
2023-05-09T04:03:19.862Z,36.22
2023-05-09T04:04:19.805Z,36.21
2023-05-09T04:05:19.857Z,36.20
2023-05-09T04:06:19.834Z,36.18
2023-05-09T04:07:19.954Z,36.15
2023-05-09T04:08:19.918Z,36.21
2023-05-09T04:09:19.940Z,36.21
2023-05-09T04:10:19.982Z,36.23
2023-05-09T04:11:19.981Z,36.17
2023-05-09T04:12:19.993Z,36.18
2023-05-09T04:13:20.054Z,36.20
2023-05-09T04:14:20.054Z,36.15
2023-05-09T04:15:20.080Z,36.11
2023-05-09T04:16:20.196Z,36.13
2023-05-09T04:17:20.230Z,36.02
2023-05-09T04:18:20.128Z,36.17
2023-05-09T04:19:20.205Z,36.15
2023-05-09T04:20:20.244Z,36.15
2023-05-09T04:21:20.216Z,36.17
2023-05-09T04:22:20.282Z,36.18
2023-05-09T04:23:20.381Z,36.17
2023-05-09T04:24:20.323Z,36.13
2023-05-09T04:25:20.326Z,36.11
2023-05-09T04:26:20.363Z,36.19
2023-05-09T04:27:20.360Z,36.15
2023-05-09T04:28:20.502Z,36.13
2023-05-09T04:29:20.424Z,36.12
2023-05-09T04:30:20.444Z,36.13
2023-05-09T04:31:20.558Z,36.12
2023-05-09T04:32:20.533Z,36.07
2023-05-09T04:33:20.559Z,36.10
2023-05-09T04:34:20.558Z,36.09
2023-05-09T04:35:21.106Z,36.18
2023-05-09T04:36:20.613Z,36.12
2023-05-09T04:37:20.622Z,36.10
2023-05-09T04:38:20.638Z,36.12
2023-05-09T04:39:20.754Z,36.15
2023-05-09T04:40:20.687Z,36.07
2023-05-09T04:41:20.730Z,36.11
2023-05-09T04:42:20.755Z,36.10
2023-05-09T04:43:20.781Z,36.09
2023-05-09T04:44:20.820Z,36.15
2023-05-09T04:45:20.823Z,36.07
2023-05-09T04:46:21.796Z,36.11
2023-05-09T04:47:20.877Z,36.11
2023-05-09T04:48:20.898Z,36.09
2023-05-09T04:49:20.923Z,36.08
2023-05-09T04:50:20.945Z,36.09
2023-05-09T04:51:20.982Z,36.21
2023-05-09T04:52:21.031Z,36.09
2023-05-09T04:53:21.039Z,36.05
2023-05-09T04:54:21.035Z,36.05
2023-05-09T04:55:21.139Z,36.09
2023-05-09T04:56:21.114Z,36.09
2023-05-09T04:57:21.112Z,36.07
2023-05-09T04:58:21.169Z,36.04
2023-05-09T04:59:21.146Z,36.05
2023-05-09T05:00:21.198Z,36.05
2023-05-09T05:01:21.321Z,36.04
2023-05-09T05:02:21.341Z,36.01
2023-05-09T05:03:21.267Z,36.04
2023-05-09T05:04:21.355Z,36.06
2023-05-09T05:05:24.719Z,36.03
2023-05-09T05:06:21.314Z,36.03
2023-05-09T05:07:21.313Z,36.04
2023-05-09T05:08:21.314Z,36.05
2023-05-09T05:09:21.284Z,36.00
2023-05-09T05:10:21.335Z,35.96
2023-05-09T05:11:21.366Z,35.94
2023-05-09T05:12:21.251Z,36.02
2023-05-09T05:13:21.340Z,35.98
2023-05-09T05:14:21.253Z,35.99
2023-05-09T05:15:21.218Z,36.05
2023-05-09T05:16:21.267Z,36.00
2023-05-09T05:17:21.254Z,35.75
2023-05-09T05:18:21.239Z,35.95
2023-05-09T05:19:21.185Z,35.98
2023-05-09T05:20:21.285Z,36.02
2023-05-09T05:21:21.198Z,36.00
2023-05-09T05:22:21.186Z,36.01
2023-05-09T05:23:21.145Z,36.02
2023-05-09T05:24:21.179Z,36.01
2023-05-09T05:25:21.180Z,36.03
2023-05-09T05:26:21.189Z,36.02
2023-05-09T05:27:21.230Z,34.42
2023-05-09T05:28:21.143Z,35.37
2023-05-09T05:29:21.119Z,34.96
2023-05-09T05:30:21.185Z,35.21
2023-05-09T05:31:21.227Z,34.95
2023-05-09T05:32:21.176Z,34.80
2023-05-09T05:33:21.089Z,35.75
2023-05-09T05:34:21.106Z,35.58
2023-05-09T05:35:21.097Z,35.74
2023-05-09T05:36:21.114Z,36.09
2023-05-09T05:37:21.507Z,36.27
2023-05-09T05:38:21.107Z,36.33
2023-05-09T05:39:21.083Z,36.24
2023-05-09T05:40:21.131Z,36.61
2023-05-09T05:41:21.089Z,36.83
2023-05-09T05:42:21.504Z,37.50
2023-05-09T05:43:21.187Z,37.08
2023-05-09T05:44:21.067Z,37.78
2023-05-09T05:45:21.098Z,38.71
2023-05-09T05:46:28.012Z,38.97
2023-05-09T05:47:21.005Z,39.66
2023-05-09T05:48:21.035Z,39.42
2023-05-09T05:49:21.008Z,39.98
2023-05-09T05:50:21.001Z,40.13
2023-05-09T05:51:20.985Z,40.14
2023-05-09T05:52:20.994Z,39.97
2023-05-09T05:53:21.001Z,40.51
2023-05-09T05:54:20.995Z,39.84
2023-05-09T05:55:21.032Z,39.84
2023-05-09T05:56:20.970Z,40.22
2023-05-09T05:57:20.972Z,40.76
2023-05-09T05:58:20.955Z,39.97
2023-05-09T05:59:21.085Z,39.72
2023-05-09T06:00:20.928Z,40.49
2023-05-09T06:01:20.953Z,38.34
2023-05-09T06:02:20.982Z,39.83
2023-05-09T06:03:21.021Z,39.45
2023-05-09T06:04:21.010Z,40.21
2023-05-09T06:05:20.922Z,40.71
2023-05-09T06:06:21.038Z,40.33
2023-05-09T06:07:21.070Z,39.97
2023-05-09T06:08:20.883Z,40.46
2023-05-09T06:09:20.899Z,40.57
2023-05-09T06:10:20.926Z,40.66
2023-05-09T06:11:20.865Z,41.05
2023-05-09T06:12:20.840Z,41.15
2023-05-09T06:13:21.000Z,41.10
2023-05-09T06:14:20.832Z,40.29
2023-05-09T06:15:20.913Z,39.69
2023-05-09T06:16:20.876Z,40.54
2023-05-09T06:17:20.902Z,40.97
2023-05-09T06:18:20.827Z,40.56
2023-05-09T06:19:20.792Z,40.49
2023-05-09T06:20:20.762Z,40.50
2023-05-09T06:21:20.779Z,40.43
2023-05-09T06:22:20.787Z,40.20
2023-05-09T06:23:20.795Z,40.11
2023-05-09T06:24:34.547Z,40.02
2023-05-09T06:25:21.786Z,38.68
2023-05-09T06:26:20.926Z,39.05
2023-05-09T06:27:21.094Z,39.25
2023-05-09T06:28:20.777Z,40.03
2023-05-09T06:29:20.781Z,40.42
2023-05-09T06:31:21.862Z,39.96
2023-05-09T06:32:20.750Z,40.42
2023-05-09T06:33:20.756Z,40.23
2023-05-09T06:34:20.714Z,40.11
2023-05-09T06:35:20.691Z,40.86
2023-05-09T06:36:20.719Z,40.62
2023-05-09T06:37:20.740Z,39.79
2023-05-09T06:38:20.690Z,39.95
2023-05-09T06:39:20.691Z,40.15
2023-05-09T06:40:20.651Z,39.62
2023-05-09T06:41:20.668Z,40.76
2023-05-09T06:42:20.680Z,41.06
2023-05-09T06:43:20.658Z,41.08
2023-05-09T06:44:20.697Z,40.51
2023-05-09T06:45:20.778Z,40.17
2023-05-09T06:46:20.720Z,40.94
2023-05-09T06:47:20.648Z,41.03
2023-05-09T06:48:21.597Z,41.18
2023-05-09T06:49:20.613Z,41.16
2023-05-09T06:50:20.632Z,41.27
2023-05-09T06:51:20.629Z,41.36
2023-05-09T06:52:20.571Z,41.37
2023-05-09T06:53:20.593Z,41.42
2023-05-09T06:54:20.629Z,41.42
2023-05-09T06:55:20.554Z,41.34
2023-05-09T06:56:20.580Z,41.37
2023-05-09T06:57:20.524Z,41.09
2023-05-09T06:58:20.541Z,41.25
2023-05-09T06:59:20.534Z,41.41
2023-05-09T07:00:20.568Z,41.35
2023-05-09T07:01:20.570Z,41.30
2023-05-09T07:02:20.555Z,41.39
2023-05-09T07:03:20.573Z,41.34
2023-05-09T07:04:20.472Z,41.25
2023-05-09T07:05:20.550Z,41.25
2023-05-09T07:06:20.491Z,41.21
2023-05-09T07:07:20.464Z,41.14
2023-05-09T07:08:20.597Z,41.18
2023-05-09T07:09:20.509Z,41.22
2023-05-09T07:10:20.457Z,41.11
2023-05-09T07:11:20.477Z,40.93
2023-05-09T07:12:20.445Z,41.23
2023-05-09T07:13:20.763Z,40.75
2023-05-09T07:14:20.439Z,41.36
2023-05-09T07:15:29.100Z,41.48
2023-05-09T07:16:21.455Z,41.51
2023-05-09T07:17:23.684Z,41.53
2023-05-09T07:18:20.415Z,41.47
2023-05-09T07:19:20.481Z,41.51
2023-05-09T07:20:20.371Z,41.55
2023-05-09T07:21:20.379Z,41.51
2023-05-09T07:22:20.412Z,41.77
2023-05-09T07:23:20.387Z,41.32
2023-05-09T07:24:20.346Z,41.43
2023-05-09T07:25:20.366Z,41.57
2023-05-09T07:26:20.321Z,41.49
2023-05-09T07:27:20.448Z,41.56
2023-05-09T07:28:20.624Z,41.72
2023-05-09T07:29:20.326Z,41.76
2023-05-09T07:30:20.361Z,40.47
2023-05-09T07:31:20.365Z,41.43
2023-05-09T07:32:20.308Z,41.68
2023-05-09T07:33:20.341Z,40.07
2023-05-09T07:34:20.312Z,39.61
2023-05-09T07:35:20.341Z,39.35
2023-05-09T07:36:20.332Z,39.67
2023-05-09T07:37:20.290Z,38.77
2023-05-09T07:38:20.284Z,39.75
2023-05-09T07:39:20.261Z,38.66
2023-05-09T07:40:20.256Z,39.85
2023-05-09T07:41:20.247Z,40.01
2023-05-09T07:42:20.254Z,39.88
2023-05-09T07:43:20.587Z,39.66
2023-05-09T07:44:20.233Z,39.74
2023-05-09T07:45:22.091Z,39.66
2023-05-09T07:46:20.315Z,39.60
2023-05-09T07:47:20.217Z,39.57
2023-05-09T07:48:20.226Z,40.07
2023-05-09T07:49:20.209Z,39.22
2023-05-09T07:50:20.197Z,39.18
2023-05-09T07:51:20.254Z,38.31
2023-05-09T07:52:20.179Z,38.50
2023-05-09T07:53:20.150Z,39.28
2023-05-09T07:54:20.151Z,39.18
2023-05-09T07:55:20.133Z,39.05
2023-05-09T07:56:20.098Z,39.14
2023-05-09T07:57:20.125Z,38.58
2023-05-09T07:58:20.120Z,39.10
2023-05-09T07:59:20.602Z,39.16
2023-05-09T08:00:20.123Z,38.93
2023-05-09T08:01:20.072Z,39.43
2023-05-09T08:02:20.095Z,39.23
2023-05-09T08:03:20.168Z,39.38
2023-05-09T08:04:20.127Z,39.36
2023-05-09T08:05:20.057Z,39.15
2023-05-09T08:06:20.079Z,38.66
2023-05-09T08:07:20.141Z,38.87
2023-05-09T08:08:20.056Z,38.70
2023-05-09T08:09:20.031Z,38.38
2023-05-09T08:10:20.031Z,38.91
2023-05-09T08:11:20.046Z,39.79
2023-05-09T08:12:20.023Z,39.29
2023-05-09T08:13:20.051Z,39.91
2023-05-09T08:14:19.982Z,39.30
2023-05-09T08:15:19.984Z,39.30
2023-05-09T08:16:20.017Z,39.08
2023-05-09T08:17:20.045Z,39.93
2023-05-09T08:18:20.034Z,39.13
2023-05-09T08:19:20.097Z,39.67
2023-05-09T08:20:19.969Z,40.04
2023-05-09T08:21:22.146Z,40.08
2023-05-09T08:22:19.946Z,40.25
2023-05-09T08:23:20.035Z,40.39
2023-05-09T08:24:20.102Z,40.40
2023-05-09T08:25:20.035Z,40.38
2023-05-09T08:26:19.927Z,40.42
2023-05-09T08:27:19.973Z,40.48
2023-05-09T08:28:22.520Z,40.51
2023-05-09T08:29:20.166Z,40.53
2023-05-09T08:30:20.163Z,40.48
2023-05-09T08:31:20.206Z,40.69
2023-05-09T08:32:20.254Z,40.77
2023-05-09T08:33:20.267Z,40.67
2023-05-09T08:34:20.629Z,40.59
2023-05-09T08:35:20.338Z,40.43
2023-05-09T08:36:20.440Z,40.37
2023-05-09T08:37:20.404Z,40.31
2023-05-09T08:38:20.509Z,40.18
2023-05-09T08:39:20.562Z,40.09
2023-05-09T08:40:20.488Z,40.00
2023-05-09T08:41:20.529Z,39.94
2023-05-09T08:42:20.582Z,39.87
2023-05-09T08:43:20.585Z,39.82
2023-05-09T08:44:20.610Z,39.81
2023-05-09T08:45:20.634Z,39.77
2023-05-09T08:46:20.794Z,39.75
2023-05-09T08:47:20.759Z,39.71
2023-05-09T08:48:20.754Z,39.65
2023-05-09T08:49:20.760Z,39.65
2023-05-09T08:50:20.879Z,39.60
2023-05-09T08:51:20.871Z,40.14
2023-05-09T08:52:20.906Z,39.86
2023-05-09T08:53:20.931Z,40.21
2023-05-09T08:54:22.860Z,40.41
2023-05-09T08:55:21.148Z,40.33
2023-05-09T08:56:21.040Z,40.23
2023-05-09T08:57:21.076Z,40.54
2023-05-09T08:58:21.144Z,40.63
2023-05-09T08:59:21.163Z,40.02
2023-05-09T09:00:21.470Z,40.49
2023-05-09T09:01:21.238Z,40.06
2023-05-09T09:02:21.267Z,39.92
2023-05-09T09:03:21.281Z,40.46
2023-05-09T09:04:21.664Z,40.13
2023-05-09T09:05:40.145Z,39.73
2023-05-09T09:06:22.339Z,39.93
2023-05-09T09:07:21.348Z,40.74
2023-05-09T09:08:21.348Z,41.10
2023-05-09T09:09:21.736Z,41.16
2023-05-09T09:10:21.327Z,41.05
2023-05-09T09:11:21.395Z,40.43
2023-05-09T09:12:21.317Z,40.07
2023-05-09T09:13:21.306Z,40.48
2023-05-09T09:14:21.294Z,40.58
2023-05-09T09:15:21.290Z,39.50
2023-05-09T09:16:21.313Z,39.49
2023-05-09T09:17:21.261Z,39.28
2023-05-09T09:18:21.279Z,39.83
2023-05-09T09:19:21.344Z,39.73
2023-05-09T09:20:21.256Z,38.43
2023-05-09T09:21:21.315Z,39.30
2023-05-09T09:22:21.464Z,39.55
2023-05-09T09:23:21.212Z,39.46
2023-05-09T09:24:21.211Z,39.35
2023-05-09T09:25:21.417Z,39.06
2023-05-09T09:26:21.200Z,37.91
2023-05-09T09:27:21.274Z,38.56
2023-05-09T09:28:21.200Z,37.39
2023-05-09T09:29:21.190Z,38.00
2023-05-09T09:30:21.208Z,38.07
2023-05-09T09:31:21.284Z,36.54
2023-05-09T09:32:21.251Z,37.02
2023-05-09T09:33:21.181Z,37.31
2023-05-09T09:34:21.141Z,37.74
2023-05-09T09:35:21.185Z,38.10
2023-05-09T09:36:21.124Z,38.04
2023-05-09T09:37:21.137Z,37.94
2023-05-09T09:38:21.149Z,37.98
2023-05-09T09:39:21.118Z,38.08
2023-05-09T09:40:21.086Z,38.11
2023-05-09T09:41:21.127Z,36.09
2023-05-09T09:42:21.088Z,34.53
2023-05-09T09:43:21.199Z,35.84
2023-05-09T09:44:21.160Z,35.92
2023-05-09T09:45:21.285Z,36.02
2023-05-09T09:46:21.259Z,35.47
2023-05-09T09:47:21.307Z,35.85
2023-05-09T09:48:21.327Z,36.27
2023-05-09T09:49:21.341Z,36.40
2023-05-09T09:50:21.709Z,35.51
2023-05-09T09:51:21.460Z,35.12
2023-05-09T09:52:21.530Z,35.16
2023-05-09T09:53:21.490Z,35.15
2023-05-09T09:54:21.587Z,34.85
2023-05-09T09:55:21.588Z,34.69
2023-05-09T09:56:21.600Z,35.09
2023-05-09T09:57:21.617Z,34.28
2023-05-09T09:58:21.652Z,34.41
2023-05-09T09:59:21.778Z,34.77
2023-05-09T10:00:21.708Z,34.73
2023-05-09T10:01:21.747Z,35.09
2023-05-09T10:02:21.795Z,34.88
2023-05-09T10:03:21.832Z,35.07
2023-05-09T10:04:22.678Z,34.22
2023-05-09T10:05:21.836Z,34.13
2023-05-09T10:06:21.823Z,33.70
2023-05-09T10:07:21.924Z,33.76
2023-05-09T10:08:21.897Z,33.73
2023-05-09T10:09:21.941Z,33.22
2023-05-09T10:10:22.004Z,32.95
2023-05-09T10:11:22.022Z,33.59
2023-05-09T10:12:22.063Z,33.56
2023-05-09T10:13:22.117Z,32.78
2023-05-09T10:14:22.203Z,33.47
2023-05-09T10:15:22.156Z,33.43
2023-05-09T10:16:35.533Z,32.96
2023-05-09T10:17:23.442Z,32.89
2023-05-09T10:18:22.301Z,33.56
2023-05-09T10:19:22.168Z,33.72
2023-05-09T10:20:22.144Z,33.69
2023-05-09T10:21:22.224Z,33.66
2023-05-09T10:22:22.179Z,33.72
2023-05-09T10:23:22.124Z,33.47
2023-05-09T10:24:22.127Z,33.15
2023-05-09T10:25:22.118Z,33.18
2023-05-09T10:26:22.086Z,33.31
2023-05-09T10:27:22.131Z,33.08
2023-05-09T10:28:22.083Z,32.89
2023-05-09T10:29:22.072Z,32.31
2023-05-09T10:30:22.218Z,32.17
2023-05-09T10:31:22.177Z,32.51
2023-05-09T10:32:22.033Z,33.01
2023-05-09T10:33:22.065Z,33.40
2023-05-09T10:34:22.036Z,32.97
2023-05-09T10:35:22.165Z,32.64
2023-05-09T10:36:22.021Z,32.54
2023-05-09T10:37:22.073Z,31.27
2023-05-09T10:38:22.101Z,32.59
2023-05-09T10:39:22.186Z,33.72
2023-05-09T10:40:22.683Z,33.94
2023-05-09T10:41:22.334Z,34.18
2023-05-09T10:42:22.396Z,34.48
2023-05-09T10:43:22.404Z,35.22
2023-05-09T10:44:22.511Z,35.50
2023-05-09T10:45:22.562Z,35.16
2023-05-09T10:46:22.623Z,34.92
2023-05-09T10:47:22.755Z,35.49
2023-05-09T10:48:22.672Z,36.01
2023-05-09T10:49:22.747Z,35.88
2023-05-09T10:50:23.205Z,35.79
2023-05-09T10:51:22.860Z,35.66
2023-05-09T10:52:22.921Z,35.17
2023-05-09T10:53:22.897Z,35.57
2023-05-09T10:54:22.937Z,34.44
2023-05-09T10:55:22.987Z,34.32
2023-05-09T10:56:23.024Z,35.17
2023-05-09T10:57:23.106Z,35.17
2023-05-09T10:58:23.131Z,33.27
2023-05-09T10:59:23.179Z,33.04
2023-05-09T11:00:23.227Z,32.94
2023-05-09T11:01:23.288Z,33.23
2023-05-09T11:02:23.348Z,33.49
2023-05-09T11:03:23.531Z,33.39
2023-05-09T11:04:23.462Z,33.88
2023-05-09T11:05:23.545Z,33.72
2023-05-09T11:06:23.526Z,33.21
2023-05-09T11:07:23.598Z,34.20
2023-05-09T11:08:23.652Z,33.96
2023-05-09T11:09:23.635Z,33.96
2023-05-09T11:10:23.646Z,32.48
2023-05-09T11:11:23.726Z,31.61
2023-05-09T11:12:23.731Z,31.05
2023-05-09T11:13:23.810Z,31.02
2023-05-09T11:14:23.890Z,30.56
2023-05-09T11:15:23.870Z,30.67
2023-05-09T11:16:23.927Z,31.07
2023-05-09T11:17:23.918Z,31.29
2023-05-09T11:18:23.898Z,31.55
2023-05-09T11:19:23.998Z,30.88
2023-05-09T11:20:23.956Z,29.80
2023-05-09T11:21:23.959Z,30.40
2023-05-09T11:22:24.019Z,31.11
2023-05-09T11:23:23.972Z,31.74
2023-05-09T11:24:24.024Z,30.77
2023-05-09T11:25:25.035Z,31.01
2023-05-09T11:26:24.030Z,30.85
2023-05-09T11:27:24.075Z,31.53
2023-05-09T11:28:24.056Z,31.87
2023-05-09T11:29:24.101Z,32.00
2023-05-09T11:30:24.183Z,32.07
2023-05-09T11:31:24.859Z,32.02
2023-05-09T11:32:24.305Z,32.03
2023-05-09T11:33:24.401Z,32.01
2023-05-09T11:34:24.404Z,32.05
2023-05-09T11:35:24.477Z,32.03
2023-05-09T11:36:24.699Z,32.03
2023-05-09T11:37:24.462Z,31.98
2023-05-09T11:38:24.539Z,32.00
2023-05-09T11:39:24.494Z,31.99
2023-05-09T11:40:24.537Z,32.00
2023-05-09T11:41:24.764Z,31.98
2023-05-09T11:42:24.590Z,31.95
2023-05-09T11:43:24.605Z,31.96
2023-05-09T11:44:24.625Z,31.96
2023-05-09T11:45:24.624Z,31.94
2023-05-09T11:46:24.706Z,31.97
2023-05-09T11:47:24.680Z,31.96
2023-05-09T11:48:24.642Z,31.93
2023-05-09T11:49:24.712Z,31.99
2023-05-09T11:50:24.697Z,31.99
2023-05-09T11:51:24.783Z,31.97
2023-05-09T11:52:24.732Z,31.97
2023-05-09T11:53:24.709Z,32.00
2023-05-09T11:54:24.743Z,32.00
2023-05-09T11:55:24.717Z,32.01
2023-05-09T11:56:25.209Z,32.00
2023-05-09T11:57:24.713Z,32.01
2023-05-09T11:58:24.699Z,32.02
2023-05-09T11:59:24.713Z,32.03
2023-05-09T12:00:24.717Z,32.05
2023-05-09T12:01:24.741Z,32.06
2023-05-09T12:02:24.792Z,32.05
2023-05-09T12:03:24.919Z,32.10
2023-05-09T12:04:24.853Z,32.08
2023-05-09T12:05:24.744Z,32.12
2023-05-09T12:06:24.757Z,32.05
2023-05-09T12:07:24.854Z,31.84
2023-05-09T12:08:24.769Z,31.60
2023-05-09T12:09:24.762Z,31.29
2023-05-09T12:10:24.763Z,31.19
2023-05-09T12:11:24.785Z,31.37
2023-05-09T12:12:24.755Z,31.30
2023-05-09T12:13:24.808Z,30.79
2023-05-09T12:14:24.753Z,30.65
2023-05-09T12:15:24.758Z,30.27
2023-05-09T12:16:24.810Z,30.38
2023-05-09T12:17:24.767Z,30.58
2023-05-09T12:18:24.736Z,30.73
2023-05-09T12:19:24.728Z,30.27
2023-05-09T12:20:24.724Z,30.02
2023-05-09T12:21:24.717Z,30.23
2023-05-09T12:22:24.746Z,30.23
2023-05-09T12:23:24.817Z,29.98
2023-05-09T12:24:24.715Z,29.89
2023-05-09T12:25:24.743Z,30.04
2023-05-09T12:26:24.771Z,30.93
2023-05-09T12:27:24.733Z,31.20
2023-05-09T12:28:24.734Z,30.97
2023-05-09T12:29:24.756Z,31.36
2023-05-09T12:30:24.749Z,31.50
2023-05-09T12:31:24.765Z,31.09
2023-05-09T12:32:24.738Z,31.09
2023-05-09T12:33:24.727Z,31.02
2023-05-09T12:34:24.710Z,31.40
2023-05-09T12:35:24.720Z,31.66
2023-05-09T12:36:24.716Z,31.40
2023-05-09T12:37:24.700Z,31.73
2023-05-09T12:38:24.737Z,31.80
2023-05-09T12:39:24.808Z,31.63
2023-05-09T12:40:24.773Z,31.75
2023-05-09T12:42:24.783Z,32.03
2023-05-09T12:43:24.781Z,31.89
2023-05-09T12:44:24.720Z,31.99
2023-05-09T12:45:24.770Z,32.13
2023-05-09T12:46:24.814Z,31.79
2023-05-09T12:47:24.764Z,32.37
2023-05-09T12:48:24.743Z,32.37
2023-05-09T12:49:24.728Z,32.43
2023-05-09T12:50:24.720Z,32.41
2023-05-09T12:51:24.741Z,32.18
2023-05-09T12:52:24.692Z,32.25
2023-05-09T12:53:24.710Z,32.34
2023-05-09T12:54:24.675Z,32.43